Time;durP1;ratioP1;P1;durP2;ratioP2;P2;SDS_P1;SDS_P2;PMS_P1;PMS_P2;Temp;Humidity;BMP_temperature;BMP_pressure;BME280_temperature;BME280_humidity;BME280_pressure;Samples;Min_cycle;Max_cycle;Signal;HPM_P1;HPM_P2
2023/06/02 05:02:26;;;;;;;9.25;5.75;;;14.30;91.10;;;;;;5369889;23;20057;-72
2023/06/02 05:04:52;;;;;;;8.98;5.80;;;14.30;91.40;;;;;;4887539;29;20044;-71
2023/06/02 05:07:18;;;;;;;9.43;5.63;;;14.20;91.50;;;;;;4873063;29;20032;-71
2023/06/02 05:09:44;;;;;;;12.60;6.35;;;14.30;91.60;;;;;;4876307;29;20108;-70
2023/06/02 05:12:10;;;;;;;11.77;5.85;;;14.30;91.70;;;;;;4890425;29;20132;-72
2023/06/02 05:14:36;;;;;;;8.75;5.90;;;14.40;91.90;;;;;;4891121;29;20042;-70
2023/06/02 05:17:03;;;;;;;9.70;5.88;;;14.40;91.90;;;;;;4875158;29;20096;-72
2023/06/02 05:19:29;;;;;;;9.50;6.28;;;14.40;91.80;;;;;;4877860;29;20065;-71
2023/06/02 05:21:54;;;;;;;10.85;5.80;;;14.50;91.80;;;;;;4871808;29;20362;-71
2023/06/02 05:24:21;;;;;;;10.57;6.65;;;14.50;91.80;;;;;;4872335;29;20044;-71
2023/06/02 05:26:46;;;;;;;12.10;6.28;;;14.50;91.70;;;;;;4889060;29;20080;-70
2023/06/02 05:29:12;;;;;;;14.30;6.20;;;14.60;91.70;;;;;;4888608;29;20214;-71
2023/06/02 05:31:38;;;;;;;12.80;7.32;;;14.60;91.80;;;;;;4888891;29;20039;-72
2023/06/02 05:34:04;;;;;;;10.23;5.25;;;14.70;91.80;;;;;;4871682;29;20096;-73
2023/06/02 05:36:30;;;;;;;9.50;6.25;;;14.80;91.80;;;;;;4885017;29;20028;-72
2023/06/02 05:38:56;;;;;;;12.32;5.85;;;14.70;91.90;;;;;;4890143;29;20037;-72
2023/06/02 05:41:21;;;;;;;10.13;6.07;;;14.80;91.90;;;;;;4890825;29;20032;-71
2023/06/02 05:43:48;;;;;;;13.57;5.97;;;14.90;91.90;;;;;;4907096;29;20046;-72
2023/06/02 05:46:15;;;;;;;11.73;7.13;;;14.90;91.70;;;;;;4890645;29;20048;-73
2023/06/02 05:48:40;;;;;;;10.52;6.07;;;15.00;91.60;;;;;;4907499;29;20051;-73
2023/06/02 05:51:06;;;;;;;10.38;6.18;;;15.00;91.60;;;;;;4890018;29;20059;-73
2023/06/02 05:53:32;;;;;;;10.88;6.43;;;15.10;91.70;;;;;;4890651;29;20144;-72
2023/06/02 05:55:58;;;;;;;9.13;5.95;;;15.10;91.50;;;;;;4890046;29;20333;-73
2023/06/02 05:58:24;;;;;;;11.10;6.72;;;15.20;91.60;;;;;;4907129;29;20037;-71
2023/06/02 06:00:50;;;;;;;10.40;6.05;;;15.20;91.50;;;;;;4890259;29;20036;-74
2023/06/02 06:03:16;;;;;;;11.00;6.38;;;15.20;91.50;;;;;;4874665;29;20053;-72
2023/06/02 06:05:43;;;;;;;9.13;5.93;;;15.20;91.60;;;;;;4871918;29;20306;-72
2023/06/02 06:08:09;;;;;;;17.33;7.40;;;15.30;91.50;;;;;;4888309;29;20474;-71
2023/06/02 06:10:37;;;;;;;22.38;8.40;;;15.50;91.40;;;;;;4860354;29;20069;-72
2023/06/02 06:13:02;;;;;;;51.30;11.60;;;15.60;91.00;;;;;;4891604;29;20037;-73
2023/06/02 06:15:28;;;;;;;11.63;6.30;;;15.60;91.10;;;;;;4892115;29;20084;-71
2023/06/02 06:17:54;;;;;;;15.70;7.07;;;15.60;90.90;;;;;;4891516;29;20029;-72
2023/06/02 06:20:20;;;;;;;59.17;13.90;;;15.70;90.90;;;;;;4875351;29;20047;-73
2023/06/02 06:22:47;;;;;;;32.83;10.40;;;15.70;90.80;;;;;;4875400;29;20032;-71
2023/06/02 06:25:14;;;;;;;12.45;6.25;;;15.80;90.90;;;;;;4891091;29;20028;-72
2023/06/02 06:27:40;;;;;;;9.85;6.30;;;15.90;90.60;;;;;;4875490;29;20214;-72
2023/06/02 06:30:06;;;;;;;42.67;10.50;;;15.80;90.90;;;;;;4874738;29;20020;-73
2023/06/02 06:32:33;;;;;;;138.80;23.55;;;15.80;90.70;;;;;;4875293;29;20318;-73
2023/06/02 06:34:59;;;;;;;16.23;8.07;;;16.00;90.70;;;;;;4891354;29;20037;-73
2023/06/02 06:37:27;;;;;;;8.98;5.68;;;16.20;90.50;;;;;;4872092;29;20033;-72
2023/06/02 06:39:54;;;;;;;10.75;6.32;;;16.20;90.10;;;;;;4855801;29;20284;-73
2023/06/02 06:42:21;;;;;;;10.50;5.35;;;16.30;90.10;;;;;;4873196;29;20042;-73
2023/06/02 06:45:00;;;;;;;11.30;6.45;;;16.30;90.10;;;;;;4855998;29;20037;-72
2023/06/02 06:47:26;;;;;;;11.00;6.30;;;16.30;89.90;;;;;;4856590;29;20036;-74
2023/06/02 06:49:52;;;;;;;11.63;6.40;;;16.30;89.90;;;;;;4856096;29;20082;-73
2023/06/02 06:52:18;;;;;;;8.88;6.00;;;16.30;90.00;;;;;;4872822;29;20037;-74
2023/06/02 06:54:44;;;;;;;8.60;5.70;;;16.30;90.00;;;;;;4856356;29;20028;-74
2023/06/02 06:57:10;;;;;;;12.30;6.22;;;16.40;89.80;;;;;;4872276;29;20040;-73
2023/06/02 06:59:36;;;;;;;11.98;6.20;;;16.50;89.80;;;;;;4872614;29;20230;-71
2023/06/02 07:02:02;;;;;;;7.93;5.28;;;16.40;89.10;;;;;;4872028;29;20053;-71
2023/06/02 07:04:28;;;;;;;11.13;6.07;;;16.60;89.20;;;;;;4866968;29;20101;-72
2023/06/02 07:06:54;;;;;;;8.52;5.40;;;16.70;88.90;;;;;;4872639;29;20236;-73
2023/06/02 07:09:20;;;;;;;9.82;5.45;;;16.80;88.60;;;;;;4872800;29;20026;-72
2023/06/02 07:11:46;;;;;;;11.13;5.60;;;17.10;88.00;;;;;;4872769;29;20033;-72
2023/06/02 07:14:12;;;;;;;9.75;5.53;;;17.20;87.60;;;;;;4871853;29;20097;-72
2023/06/02 07:16:37;;;;;;;9.10;5.60;;;17.30;86.50;;;;;;4872571;29;20045;-72
2023/06/02 07:19:03;;;;;;;9.05;5.53;;;17.30;86.40;;;;;;4871828;29;20211;-73
2023/06/02 07:21:29;;;;;;;8.18;5.72;;;17.40;86.30;;;;;;4871346;29;20089;-72
2023/06/02 07:23:55;;;;;;;7.75;5.63;;;17.40;85.70;;;;;;4855608;29;20078;-73
2023/06/02 07:26:21;;;;;;;9.68;6.55;;;17.30;86.10;;;;;;4872435;29;20049;-73
2023/06/02 07:28:46;;;;;;;10.20;5.85;;;17.30;86.30;;;;;;4872383;29;20041;-73
2023/06/02 07:31:12;;;;;;;8.27;5.40;;;17.20;86.70;;;;;;4871756;29;20185;-72
2023/06/02 07:33:38;;;;;;;9.93;6.25;;;17.00;87.00;;;;;;4872301;29;20041;-73
2023/06/02 07:36:04;;;;;;;9.75;5.93;;;17.00;87.30;;;;;;4871520;29;20231;-73
2023/06/02 07:38:30;;;;;;;9.73;6.25;;;17.00;86.90;;;;;;4855613;29;20104;-73
2023/06/02 07:40:56;;;;;;;8.13;5.72;;;17.00;87.30;;;;;;4871717;29;20053;-74
2023/06/02 07:43:21;;;;;;;8.70;5.38;;;17.10;87.50;;;;;;4871890;29;20285;-74
2023/06/02 07:45:47;;;;;;;8.32;5.55;;;17.20;86.50;;;;;;4871771;29;20092;-74
2023/06/02 07:48:13;;;;;;;8.65;5.72;;;17.30;86.60;;;;;;4871144;29;20325;-72
2023/06/02 07:50:39;;;;;;;7.93;5.40;;;17.40;86.40;;;;;;4871743;29;20053;-73
2023/06/02 07:53:04;;;;;;;8.90;5.97;;;17.60;85.90;;;;;;4871318;29;20041;-72
2023/06/02 07:55:30;;;;;;;8.65;5.50;;;17.70;85.10;;;;;;4871932;29;20039;-71
2023/06/02 07:57:56;;;;;;;8.85;5.68;;;17.60;85.50;;;;;;4871618;29;20056;-71
2023/06/02 08:00:22;;;;;;;9.15;5.45;;;17.80;85.50;;;;;;4871835;29;20041;-71
2023/06/02 08:02:48;;;;;;;9.00;5.32;;;17.90;85.00;;;;;;4872190;29;20053;-71
2023/06/02 08:05:14;;;;;;;8.20;5.78;;;18.10;84.40;;;;;;4889671;29;20040;-72
2023/06/02 08:07:40;;;;;;;9.00;5.82;;;18.10;82.90;;;;;;4890449;29;20075;-71
2023/06/02 08:10:07;;;;;;;8.05;5.53;;;17.90;83.40;;;;;;4872952;29;20085;-72
2023/06/02 08:12:34;;;;;;;7.70;5.07;;;18.00;84.00;;;;;;4873419;29;20041;-71
2023/06/02 08:14:59;;;;;;;9.73;5.57;;;18.10;83.40;;;;;;4889202;29;20325;-72
2023/06/02 08:17:31;;;;;;;8.40;5.20;;;18.20;82.80;;;;;;4889742;29;20207;-71
2023/06/02 08:20:01;;;;;;;8.85;5.45;;;18.40;83.00;;;;;;4873448;29;20330;-74
2023/06/02 08:22:30;;;;;;;11.00;5.90;;;18.50;81.70;;;;;;4890091;29;20036;-74
2023/06/02 08:24:58;;;;;;;8.75;5.63;;;18.50;82.10;;;;;;4888489;29;20386;-72
2023/06/02 08:27:24;;;;;;;8.63;5.18;;;18.50;82.10;;;;;;4889985;29;20029;-72
2023/06/02 08:29:51;;;;;;;8.20;4.88;;;18.50;82.70;;;;;;4889573;29;20311;-73
2023/06/02 08:32:24;;;;;;;11.05;5.47;;;18.60;81.50;;;;;;4888816;29;20200;-72
2023/06/02 08:34:50;;;;;;;18.83;6.32;;;18.70;81.10;;;;;;4889548;29;20096;-72
2023/06/02 08:37:20;;;;;;;10.30;5.43;;;18.70;81.20;;;;;;4889113;29;20045;-72
2023/06/02 08:39:47;;;;;;;6.50;5.25;;;18.80;81.10;;;;;;4889419;29;20096;-75
2023/06/02 08:42:14;;;;;;;7.85;5.78;;;18.80;80.70;;;;;;4888854;29;20111;-73
2023/06/02 08:44:42;;;;;;;8.65;5.90;;;18.80;80.50;;;;;;4889618;29;20032;-73
2023/06/02 08:47:10;;;;;;;18.50;7.87;;;18.70;81.10;;;;;;4889095;29;20017;-72
2023/06/02 08:49:46;;;;;;;13.18;6.18;;;18.60;80.80;;;;;;4889553;29;20425;-76
2023/06/02 08:52:15;;;;;;;9.55;5.68;;;18.70;81.00;;;;;;4889085;29;20041;-74
2023/06/02 08:54:42;;;;;;;8.02;5.50;;;18.60;80.80;;;;;;4889185;29;20060;-74
2023/06/02 08:57:09;;;;;;;15.85;7.10;;;18.50;80.80;;;;;;4888516;29;20311;-72
2023/06/02 08:59:35;;;;;;;162.20;23.65;;;18.50;81.80;;;;;;4889015;29;20326;-72
2023/06/02 09:02:01;;;;;;;103.07;17.20;;;18.60;82.00;;;;;;4888114;29;20359;-73
2023/06/02 09:04:27;;;;;;;17.05;6.05;;;18.60;81.10;;;;;;4889072;29;20044;-75
2023/06/02 09:07:11;;;;;;;8.18;5.07;;;18.80;81.40;;;;;;4889059;29;20318;-72
2023/06/02 09:09:41;;;;;;;9.73;5.03;;;18.90;81.40;;;;;;4889234;29;20370;-71
2023/06/02 09:12:08;;;;;;;16.45;6.45;;;19.20;81.40;;;;;;4888441;29;20041;-74
2023/06/02 09:14:37;;;;;;;10.77;6.18;;;19.30;80.10;;;;;;4889236;29;20024;-74
2023/06/02 09:17:04;;;;;;;7.72;5.10;;;19.30;80.20;;;;;;4871777;29;20135;-74
2023/06/02 09:19:52;;;;;;;11.55;5.10;;;19.40;80.30;;;;;;4889102;29;20311;-73
2023/06/02 09:22:18;;;;;;;34.35;9.07;;;19.70;79.50;;;;;;4888658;29;20043;-74
2023/06/02 09:24:44;;;;;;;8.98;5.18;;;19.70;78.60;;;;;;4889128;29;20029;-75
2023/06/02 09:27:13;;;;;;;12.30;5.93;;;19.80;78.60;;;;;;4871789;29;20036;-75
2023/06/02 09:29:40;;;;;;;7.35;5.50;;;19.90;78.50;;;;;;4889117;29;20036;-73
2023/06/02 09:32:14;;;;;;;8.65;5.80;;;20.00;78.90;;;;;;4888432;29;20322;-74
2023/06/02 09:34:41;;;;;;;9.30;5.50;;;20.00;78.40;;;;;;4888940;29;20032;-70
2023/06/02 09:37:09;;;;;;;8.25;5.30;;;19.90;78.10;;;;;;4888419;29;20306;-71
2023/06/02 09:39:38;;;;;;;8.77;5.43;;;20.00;78.40;;;;;;4888979;29;20045;-71
2023/06/02 09:42:06;;;;;;;15.20;6.05;;;20.20;77.80;;;;;;4888047;29;20371;-73
2023/06/02 09:44:32;;;;;;;27.15;7.57;;;20.30;77.30;;;;;;4891408;29;20048;-73
2023/06/02 09:46:59;;;;;;;10.70;5.80;;;20.50;77.20;;;;;;4892469;29;20324;-71
2023/06/02 09:49:25;;;;;;;7.47;5.10;;;20.40;76.40;;;;;;4891903;29;20208;-71
2023/06/02 09:51:51;;;;;;;9.27;5.95;;;20.40;76.00;;;;;;4892813;29;20059;-74
2023/06/02 09:54:17;;;;;;;10.68;5.72;;;20.50;76.50;;;;;;4891717;29;20057;-72
2023/06/02 09:56:43;;;;;;;7.22;5.00;;;20.70;75.90;;;;;;4875900;29;20021;-76
2023/06/02 09:59:09;;;;;;;8.70;5.70;;;20.60;76.00;;;;;;4891680;29;20045;-73
2023/06/02 10:01:36;;;;;;;11.98;6.03;;;20.60;76.00;;;;;;4892025;29;20342;-72
2023/06/02 10:04:04;;;;;;;12.40;5.68;;;20.60;75.90;;;;;;4892447;29;20045;-71
2023/06/02 10:06:43;;;;;;;11.60;5.82;;;20.70;75.40;;;;;;4892213;29;20029;-72
2023/06/02 10:09:32;;;;;;;8.77;5.13;;;20.80;75.00;;;;;;4891729;29;20060;-70
2023/06/02 10:12:24;;;;;;;12.70;4.60;;;20.80;74.60;;;;;;4892475;29;20045;-72
2023/06/02 10:15:14;;;;;;;6.80;4.72;;;20.80;75.70;;;;;;4892687;29;20056;-72
2023/06/02 10:18:06;;;;;;;9.00;5.38;;;20.90;75.40;;;;;;4892423;29;20108;-74
2023/06/02 10:21:03;;;;;;;8.13;4.97;;;21.00;74.60;;;;;;4892308;29;20065;-72
2023/06/02 10:24:08;;;;;;;8.82;5.20;;;21.10;74.20;;;;;;4891315;29;20060;-73
2023/06/02 10:26:49;;;;;;;7.68;5.18;;;21.10;74.00;;;;;;4892137;29;20040;-74
2023/06/02 10:29:16;;;;;;;9.27;4.82;;;21.20;73.50;;;;;;4891522;29;20040;-74
2023/06/02 10:31:44;;;;;;;8.90;4.90;;;21.20;74.00;;;;;;4891709;29;20315;-73
2023/06/02 10:34:39;;;;;;;6.85;4.55;;;21.20;73.70;;;;;;4891185;29;20029;-72
2023/06/02 10:37:04;;;;;;;6.97;4.53;;;21.40;72.70;;;;;;4891684;29;20041;-74
2023/06/02 10:39:39;;;;;;;10.93;5.40;;;21.40;73.30;;;;;;4891384;29;20035;-74
2023/06/02 10:42:07;;;;;;;10.13;6.40;;;21.60;72.30;;;;;;4875218;29;20033;-73
2023/06/02 10:44:32;;;;;;;13.10;8.43;;;21.80;71.80;;;;;;4891480;29;20033;-72
2023/06/02 10:47:17;;;;;;;10.05;5.00;;;21.90;71.40;;;;;;4891449;29;20077;-72
2023/06/02 10:50:06;;;;;;;6.07;4.22;;;22.00;70.70;;;;;;4891352;29;20057;-72
2023/06/02 10:52:53;;;;;;;9.38;5.10;;;22.00;70.20;;;;;;4890882;29;20036;-72
2023/06/02 10:55:18;;;;;;;6.22;4.07;;;22.10;70.10;;;;;;4879412;29;20048;-71
2023/06/02 10:58:03;;;;;;;6.75;4.53;;;22.20;70.70;;;;;;4891415;29;20040;-71
2023/06/02 11:00:32;;;;;;;5.97;4.28;;;22.60;69.10;;;;;;4890999;29;20200;-72
2023/06/02 11:02:58;;;;;;;;;;;22.70;69.30;;;;;;4891847;29;20045;-72
2023/06/02 11:05:33;;;;;;;7.43;4.00;;;22.90;69.00;;;;;;4890879;29;19916;-72
2023/06/02 11:08:28;;;;;;;6.05;3.97;;;22.90;67.40;;;;;;4874754;29;20306;-75
2023/06/02 11:10:56;;;;;;;6.38;4.38;;;23.10;66.70;;;;;;4879136;29;20049;-72
2023/06/02 11:13:23;;;;;;;8.48;3.95;;;23.40;66.00;;;;;;4890689;29;20088;-71
2023/06/02 11:15:56;;;;;;;6.20;4.30;;;23.40;65.60;;;;;;4891201;29;20044;-73
2023/06/02 11:18:22;;;;;;;5.93;3.63;;;23.40;64.90;;;;;;4890284;29;20073;-71
2023/06/02 11:20:52;;;;;;;5.53;4.30;;;23.50;65.20;;;;;;4891084;29;20021;-72
2023/06/02 11:23:19;;;;;;;5.00;4.00;;;23.80;63.70;;;;;;4890258;29;20334;-73
2023/06/02 11:25:44;;;;;;;7.43;3.15;;;24.00;62.60;;;;;;4890792;29;20024;-75
2023/06/02 11:28:20;;;;;;;7.60;3.65;;;24.20;62.10;;;;;;4873287;29;20100;-75
2023/06/02 11:30:47;;;;;;;6.20;3.53;;;24.40;61.00;;;;;;4890848;29;20054;-77
2023/06/02 11:33:12;;;;;;;4.72;3.35;;;24.60;60.50;;;;;;4889864;29;20218;-72
2023/06/02 11:35:40;;;;;;;7.45;3.80;;;24.80;58.70;;;;;;4890659;29;20056;-73
2023/06/02 11:38:11;;;;;;;11.13;4.53;;;25.40;58.60;;;;;;4890680;29;20302;-73
2023/06/02 11:40:37;;;;;;;8.40;3.72;;;26.00;57.80;;;;;;4890723;29;20048;-72
2023/06/02 11:43:04;;;;;;;4.88;3.45;;;26.80;57.70;;;;;;4890342;29;20047;-74
2023/06/02 11:45:30;;;;;;;4.30;2.95;;;27.60;56.30;;;;;;4890299;29;20318;-75
2023/06/02 11:48:11;;;;;;;6.35;3.22;;;28.30;53.80;;;;;;4890335;29;20045;-74
2023/06/02 11:50:37;;;;;;;5.10;3.10;;;29.00;53.10;;;;;;4890348;29;20085;-73
2023/06/02 11:53:10;;;;;;;8.30;3.30;;;29.90;53.10;;;;;;4891136;29;20040;-74
2023/06/02 11:55:36;;;;;;;5.45;2.90;;;30.50;52.90;;;;;;4890364;29;20299;-73
2023/06/02 11:58:20;;;;;;;5.47;2.78;;;31.60;52.30;;;;;;4890264;29;20070;-75
2023/06/02 12:00:46;;;;;;;4.35;3.10;;;31.90;51.30;;;;;;4890253;29;20044;-73
2023/06/02 12:03:12;;;;;;;4.55;2.88;;;32.50;50.60;;;;;;4889840;29;20060;-73
2023/06/02 12:05:42;;;;;;;3.83;2.45;;;33.50;49.70;;;;;;4873451;29;20040;-74
2023/06/02 12:08:22;;;;;;;3.72;2.58;;;34.10;48.00;;;;;;4890006;29;20041;-75
2023/06/02 12:10:49;;;;;;;11.10;3.15;;;34.20;47.00;;;;;;4890327;29;20032;-73
2023/06/02 12:13:28;;;;;;;15.83;3.30;;;34.40;47.20;;;;;;4889385;29;20041;-72
2023/06/02 12:15:55;;;;;;;3.95;2.50;;;35.30;46.80;;;;;;4890115;29;20616;-73
2023/06/02 12:18:31;;;;;;;3.95;2.83;;;35.50;46.00;;;;;;4889472;29;20037;-73
2023/06/02 12:20:59;;;;;;;6.40;2.87;;;35.90;45.90;;;;;;4890043;29;20109;-72
2023/06/02 12:23:43;;;;;;;4.55;2.83;;;36.00;46.00;;;;;;4889500;29;20307;-74
2023/06/02 12:26:08;;;;;;;4.18;2.72;;;35.90;45.80;;;;;;4889981;29;20100;-74
2023/06/02 12:28:34;;;;;;;4.22;2.50;;;35.60;45.50;;;;;;4889326;29;20219;-73
2023/06/02 12:31:00;;;;;;;4.47;2.72;;;35.60;45.80;;;;;;4889610;29;20096;-73
2023/06/02 12:33:26;;;;;;;4.30;2.72;;;36.00;45.70;;;;;;4888971;29;20037;-73
2023/06/02 12:35:51;;;;;;;4.32;2.78;;;36.40;45.40;;;;;;4889574;29;20195;-72
2023/06/02 12:38:17;;;;;;;11.07;3.13;;;37.00;44.70;;;;;;4889048;29;20091;-72
2023/06/02 12:40:43;;;;;;;3.60;2.55;;;37.60;44.70;;;;;;4889820;29;20064;-73
2023/06/02 12:43:08;;;;;;;6.03;2.97;;;37.70;44.70;;;;;;4889679;29;20045;-73
2023/06/02 12:45:35;;;;;;;4.47;2.70;;;37.90;44.60;;;;;;4888998;29;20055;-75
2023/06/02 12:48:02;;;;;;;4.07;2.80;;;37.70;44.60;;;;;;4889435;29;20025;-73
2023/06/02 12:50:29;;;;;;;5.90;2.83;;;37.80;44.40;;;;;;4889031;29;20037;-74
2023/06/02 12:52:55;;;;;;;4.37;2.97;;;38.90;44.30;;;;;;4889586;29;20060;-74
2023/06/02 12:55:21;;;;;;;3.67;2.53;;;38.70;43.40;;;;;;4888864;29;20077;-74
2023/06/02 12:57:47;;;;;;;3.90;2.30;;;38.60;43.60;;;;;;4889402;29;20049;-73
2023/06/02 13:00:17;;;;;;;4.00;2.60;;;39.10;43.20;;;;;;4889351;29;20017;-74
2023/06/02 13:02:44;;;;;;;5.53;2.35;;;38.80;42.50;;;;;;4888827;29;20053;-74
2023/06/02 13:05:11;;;;;;;4.47;2.83;;;38.60;42.90;;;;;;4889083;29;20077;-72
2023/06/02 13:07:41;;;;;;;4.63;2.80;;;39.40;43.40;;;;;;4888480;29;20044;-73
2023/06/02 13:10:08;;;;;;;4.07;2.50;;;39.80;42.60;;;;;;4888924;29;20501;-73
2023/06/02 13:12:34;;;;;;;;;;;39.40;42.90;;;;;;4872684;29;20036;-73
2023/06/02 13:15:02;;;;;;;3.60;2.33;;;39.40;42.90;;;;;;4888980;29;19974;-75
2023/06/02 13:17:28;;;;;;;3.70;2.28;;;40.10;42.10;;;;;;4888454;29;20467;-74
2023/06/02 13:19:54;;;;;;;4.97;1.95;;;40.00;42.20;;;;;;4888698;29;20263;-73
2023/06/02 13:22:20;;;;;;;5.80;2.45;;;40.50;41.90;;;;;;4888566;29;20256;-74
2023/06/02 13:24:46;;;;;;;5.18;2.45;;;40.30;42.00;;;;;;4889253;29;20033;-74
2023/06/02 13:27:12;;;;;;;4.85;2.40;;;40.60;41.70;;;;;;4888844;29;20048;-74
2023/06/02 13:29:38;;;;;;;5.88;2.38;;;40.80;42.00;;;;;;4888251;29;20028;-75
2023/06/02 13:32:04;;;;;;;3.70;2.30;;;40.20;41.50;;;;;;4888992;29;20100;-73
2023/06/02 13:34:33;;;;;;;4.20;2.33;;;40.30;42.10;;;;;;4888532;29;20266;-74
2023/06/02 13:36:59;;;;;;;4.38;2.10;;;40.50;41.70;;;;;;4888889;29;20115;-72
2023/06/02 13:39:25;;;;;;;4.40;2.28;;;41.80;42.00;;;;;;4888418;29;20045;-72
2023/06/02 13:41:51;;;;;;;3.42;1.85;;;42.20;40.90;;;;;;4889057;29;20029;-75
2023/06/02 13:44:20;;;;;;;3.42;2.10;;;41.70;40.50;;;;;;4888621;29;20032;-76
2023/06/02 13:46:47;;;;;;;4.53;1.90;;;41.00;41.10;;;;;;4888663;29;20282;-77
2023/06/02 13:49:16;;;;;;;4.82;2.20;;;41.40;40.80;;;;;;4888724;29;20322;-75
2023/06/02 13:51:49;;;;;;;4.05;2.42;;;41.30;40.30;;;;;;4888028;29;20481;-71
2023/06/02 13:54:16;;;;;;;3.90;2.00;;;41.20;40.40;;;;;;4888908;29;20045;-73
2023/06/02 13:56:43;;;;;;;4.75;2.05;;;41.50;40.60;;;;;;4888214;29;20033;-73
2023/06/02 13:59:09;;;;;;;4.10;2.13;;;42.00;40.10;;;;;;4888766;29;20037;-74
2023/06/02 14:01:37;;;;;;;3.25;2.10;;;42.20;39.80;;;;;;4887759;29;20061;-72
2023/06/02 14:04:08;;;;;;;3.85;2.22;;;42.10;39.80;;;;;;4888746;29;20108;-74
2023/06/02 14:06:38;;;;;;;4.63;2.65;;;42.00;39.90;;;;;;4888241;29;20048;-72
2023/06/02 14:09:05;;;;;;;6.53;2.40;;;42.30;39.90;;;;;;4888580;29;20051;-75
2023/06/02 14:11:33;;;;;;;3.70;2.17;;;42.20;40.10;;;;;;4871546;29;20025;-74
2023/06/02 14:13:59;;;;;;;4.03;2.35;;;41.90;40.50;;;;;;4888520;29;20230;-74
2023/06/02 14:16:25;;;;;;;6.65;2.15;;;41.90;40.20;;;;;;4888113;29;20060;-74
2023/06/02 14:18:51;;;;;;;4.18;2.22;;;41.90;40.40;;;;;;4888708;29;20056;-74
2023/06/02 14:21:17;;;;;;;4.45;2.05;;;41.70;40.30;;;;;;4888537;29;20045;-74
2023/06/02 14:23:42;;;;;;;3.58;2.38;;;41.70;40.10;;;;;;4887933;29;20024;-74
2023/06/02 14:26:08;;;;;;;4.82;2.08;;;41.30;40.20;;;;;;4887521;29;20226;-75
2023/06/02 14:28:34;;;;;;;4.10;2.30;;;42.00;40.20;;;;;;4888048;29;20041;-76
2023/06/02 14:31:00;;;;;;;7.78;2.63;;;41.90;40.10;;;;;;4891591;29;20036;-75
2023/06/02 14:33:25;;;;;;;4.65;2.63;;;41.70;40.30;;;;;;4891165;29;20032;-75
2023/06/02 14:35:51;;;;;;;4.15;2.40;;;41.60;40.30;;;;;;4891733;29;20033;-74
2023/06/02 14:38:17;;;;;;;5.53;2.63;;;42.10;40.10;;;;;;4875190;29;20092;-73
2023/06/02 14:40:42;;;;;;;5.97;2.83;;;42.20;39.70;;;;;;4891312;29;20077;-74
2023/06/02 14:43:08;;;;;;;4.78;2.30;;;41.70;40.00;;;;;;4891829;29;20039;-73
2023/06/02 14:45:34;;;;;;;6.95;2.40;;;42.40;39.70;;;;;;4890844;29;20037;-73
2023/06/02 14:48:00;;;;;;;6.70;2.63;;;42.60;39.40;;;;;;4891981;29;20059;-72
2023/06/02 14:50:26;;;;;;;4.57;2.80;;;43.20;39.40;;;;;;4891267;29;20068;-73
2023/06/02 14:52:52;;;;;;;4.70;2.30;;;43.30;39.10;;;;;;4891514;29;20180;-74
2023/06/02 14:55:18;;;;;;;3.50;2.22;;;42.90;39.40;;;;;;4874926;29;20049;-75
2023/06/02 14:57:44;;;;;;;4.63;2.83;;;42.40;40.00;;;;;;4891035;29;20060;-74
2023/06/02 15:00:10;;;;;;;4.43;2.20;;;42.90;39.40;;;;;;4891483;29;20029;-72
2023/06/02 15:02:36;;;;;;;4.57;2.17;;;43.50;39.50;;;;;;4890680;29;20339;-72
2023/06/02 15:05:01;;;;;;;4.53;2.30;;;43.60;38.90;;;;;;4891104;29;20041;-73
2023/06/02 15:07:27;;;;;;;4.07;2.22;;;42.70;39.20;;;;;;4890805;29;20044;-73
2023/06/02 15:09:54;;;;;;;5.15;1.83;;;42.70;39.30;;;;;;4891277;29;20307;-74
2023/06/02 15:12:19;;;;;;;4.95;2.85;;;42.40;39.50;;;;;;4891394;29;20044;-73
2023/06/02 15:14:45;;;;;;;4.40;2.20;;;43.30;39.60;;;;;;4890747;29;20033;-74
2023/06/02 15:17:11;;;;;;;3.25;2.30;;;43.40;39.00;;;;;;4891274;29;20425;-73
2023/06/02 15:19:37;;;;;;;5.18;2.22;;;42.70;38.90;;;;;;4890314;29;20095;-72
2023/06/02 15:22:04;;;;;;;4.07;2.38;;;42.90;39.10;;;;;;4891300;29;20036;-74
2023/06/02 15:24:30;;;;;;;4.53;2.50;;;42.10;39.10;;;;;;4890701;29;20039;-74
2023/06/02 15:26:57;;;;;;;4.15;2.10;;;41.90;39.60;;;;;;4891050;29;20060;-75
2023/06/02 15:29:23;;;;;;;3.67;2.10;;;42.40;39.50;;;;;;4890925;29;20048;-73
2023/06/02 15:31:48;;;;;;;3.53;2.35;;;43.10;38.90;;;;;;4890475;29;20029;-72
2023/06/02 15:34:17;;;;;;;4.10;2.30;;;;;;;;;;4890630;29;20033;-75
2023/06/02 15:36:44;;;;;;;3.72;2.22;;;42.80;38.30;;;;;;4890362;29;20029;-75
2023/06/02 15:39:10;;;;;;;3.45;2.17;;;42.70;38.80;;;;;;4890834;29;20033;-75
2023/06/02 15:41:38;;;;;;;5.05;2.53;;;43.00;39.10;;;;;;4889426;29;20044;-75
2023/06/02 15:44:05;;;;;;;4.65;2.30;;;42.60;38.90;;;;;;4890496;29;20036;-73
2023/06/02 15:46:31;;;;;;;6.55;2.35;;;42.90;39.10;;;;;;4889774;29;20085;-73
2023/06/02 15:48:56;;;;;;;3.28;2.20;;;42.90;38.90;;;;;;4890540;29;20050;-74
2023/06/02 15:51:22;;;;;;;3.10;2.05;;;43.00;38.90;;;;;;4890692;29;20171;-74
2023/06/02 15:53:49;;;;;;;5.85;2.38;;;42.70;39.00;;;;;;4890003;29;20084;-74
2023/06/02 15:56:15;;;;;;;;;;;42.90;38.80;;;;;;4891006;29;20078;-72
2023/06/02 15:58:41;;;;;;;4.13;2.50;;;42.60;38.80;;;;;;4889893;29;20186;-73
2023/06/02 16:01:06;;;;;;;3.70;2.10;;;41.90;39.30;;;;;;4890510;29;20084;-75
2023/06/02 16:03:32;;;;;;;4.30;2.38;;;41.90;39.50;;;;;;4889913;29;20223;-71
2023/06/02 16:05:58;;;;;;;4.28;2.20;;;41.70;39.40;;;;;;4890265;29;20048;-71
2023/06/02 16:08:23;;;;;;;4.88;2.50;;;41.70;39.70;;;;;;4890204;29;20040;-73
2023/06/02 16:10:49;;;;;;;5.57;2.22;;;42.20;39.30;;;;;;4889657;29;20067;-76
2023/06/02 16:13:15;;;;;;;3.60;2.28;;;42.20;39.30;;;;;;4890180;29;20059;-74
2023/06/02 16:15:40;;;;;;;6.47;2.67;;;42.20;39.00;;;;;;4889660;29;20370;-75
2023/06/02 16:18:06;;;;;;;4.03;2.10;;;41.90;39.10;;;;;;4889980;29;20033;-77
2023/06/02 16:20:31;;;;;;;3.72;2.50;;;41.70;39.00;;;;;;4889287;29;20214;-72
2023/06/02 16:22:57;;;;;;;4.53;2.22;;;41.30;39.40;;;;;;4890103;29;20329;-75
2023/06/02 16:25:23;;;;;;;3.97;2.40;;;41.50;39.50;;;;;;4889977;29;20045;-74
2023/06/02 16:27:49;;;;;;;2.95;2.10;;;41.00;39.90;;;;;;4889329;29;20302;-75
2023/06/02 16:30:14;;;;;;;4.38;2.28;;;40.90;39.60;;;;;;4857919;29;20036;-74
2023/06/02 16:32:40;;;;;;;3.35;2.33;;;40.60;39.90;;;;;;4889063;29;20199;-72
2023/06/02 16:35:07;;;;;;;4.32;2.50;;;40.40;39.90;;;;;;4889881;29;20056;-73
2023/06/02 16:37:33;;;;;;;3.40;2.30;;;40.20;40.20;;;;;;4889270;29;20037;-74
2023/06/02 16:39:58;;;;;;;4.60;2.38;;;39.80;40.40;;;;;;4889702;29;20083;-73
2023/06/02 16:42:24;;;;;;;4.18;2.58;;;39.60;40.20;;;;;;4889707;29;20210;-74
2023/06/02 16:44:53;;;;;;;5.18;2.45;;;39.80;40.10;;;;;;4888879;29;20195;-73
2023/06/02 16:47:20;;;;;;;4.32;2.50;;;39.60;39.60;;;;;;4889706;29;20032;-73
2023/06/02 16:49:45;;;;;;;3.15;2.40;;;39.30;39.90;;;;;;4889105;29;20033;-74
2023/06/02 16:52:11;;;;;;;5.00;3.25;;;39.20;40.00;;;;;;4889564;29;20039;-75
2023/06/02 16:54:37;;;;;;;4.10;2.88;;;38.80;40.20;;;;;;4888996;29;20032;-73
2023/06/02 16:57:03;;;;;;;5.28;2.70;;;39.10;40.20;;;;;;4889425;29;20064;-73
2023/06/02 16:59:28;;;;;;;5.18;2.90;;;38.70;39.90;;;;;;4889116;29;20092;-73
2023/06/02 17:01:54;;;;;;;2.88;2.38;;;38.60;40.70;;;;;;4888748;29;20060;-73
2023/06/02 17:04:20;;;;;;;3.63;2.45;;;38.70;40.50;;;;;;4889352;29;20302;-74
2023/06/02 17:06:46;;;;;;;4.93;2.75;;;39.20;40.40;;;;;;4888503;29;20037;-74
2023/06/02 17:09:15;;;;;;;5.20;3.45;;;39.00;40.30;;;;;;4889190;29;20052;-75
2023/06/02 17:11:41;;;;;;;4.43;2.95;;;39.10;40.40;;;;;;4888718;29;20060;-73
2023/06/02 17:14:07;;;;;;;4.13;2.22;;;38.70;41.00;;;;;;4889408;29;20055;-75
2023/06/02 17:16:33;;;;;;;4.05;2.42;;;38.60;41.30;;;;;;4872087;29;20112;-72
2023/06/02 17:18:59;;;;;;;5.43;2.30;;;38.10;41.60;;;;;;4888223;29;20327;-72
2023/06/02 17:21:28;;;;;;;5.05;2.38;;;37.10;42.40;;;;;;4889194;29;20071;-72
2023/06/02 17:23:53;;;;;;;5.53;3.65;;;36.70;43.00;;;;;;4888269;29;20025;-73
2023/06/02 17:26:19;;;;;;;10.43;2.78;;;36.70;43.10;;;;;;4888804;29;20029;-72
2023/06/02 17:28:46;;;;;;;5.22;2.63;;;36.10;43.50;;;;;;4888402;29;20040;-72
2023/06/02 17:31:12;;;;;;;6.32;2.95;;;35.90;44.10;;;;;;4889050;29;20037;-74
2023/06/02 17:33:38;;;;;;;4.72;2.42;;;36.40;43.40;;;;;;4888376;29;20056;-74
2023/06/02 17:36:06;;;;;;;5.40;2.67;;;36.20;43.10;;;;;;4889179;29;20298;-74
2023/06/02 17:38:33;;;;;;;4.03;2.75;;;35.90;43.50;;;;;;4888441;29;20033;-73
2023/06/02 17:40:59;;;;;;;6.50;2.40;;;36.00;42.70;;;;;;4888885;29;20041;-74
2023/06/02 17:43:26;;;;;;;4.95;2.25;;;35.50;43.00;;;;;;4888606;29;20096;-74
2023/06/02 17:45:53;;;;;;;5.38;2.03;;;35.50;43.20;;;;;;4888066;29;20240;-74
2023/06/02 17:48:18;;;;;;;4.35;2.03;;;34.90;43.70;;;;;;4888594;29;20370;-75
2023/06/02 17:50:44;;;;;;;6.15;2.08;;;35.30;43.70;;;;;;4871536;29;20048;-76